Layton City
, Layton
Last Weather Update:12/30/2011 11:00:00 PM
Date
ETo
ETc
Rain
Irrigation
Req
Temp
Max
Temp
Min
Temp
Avg
Avg RH
Avg Wind
Avg Solar
inches
inches
incehs
inches
F
F
F
%
%
watts/m2
11/01/2011 0.00" 0.00" 0.00" 0.00" 52.5° 40.3° 46.9° 59.1% 3.9 MPH 0.0w/m2
11/02/2011 0.05" 0.00" 0.00" 0.00" 51.5° 24.8° 35.3° 60.3% 2.0 MPH 134.7w/m2
11/03/2011 0.06" 0.00" 0.00" 0.00" 52.8° 26.9° 39.9° 51.0% 2.8 MPH 119.6w/m2
11/04/2011 0.09" 0.00" 0.15" -0.12" 62.0° 32.1° 46.3° 47.9% 6.7 MPH 95.5w/m2
11/05/2011 0.03" 0.00" 0.00" 0.00" 34.8° 29.0° 31.9° 78.7% 2.9 MPH 45.5w/m2
11/06/2011 0.05" 0.00" 0.19" -0.15" 43.8° 27.4° 35.5° 63.0% 3.4 MPH 106.2w/m2
11/07/2011 0.05" 0.00" 0.00" 0.00" 44.6° 27.9° 36.5° 67.5% 3.6 MPH 99.9w/m2
11/08/2011 0.04" 0.00" 0.00" 0.00" 40.4° 24.7° 31.2° 72.3% 2.2 MPH 123.7w/m2
11/09/2011 0.04" 0.00" 0.00" 0.00" 44.5° 21.2° 31.8° 66.6% 1.8 MPH 112.3w/m2
11/10/2011 0.05" 0.00" 0.00" 0.00" 49.1° 24.1° 34.8° 63.8% 1.6 MPH 109.2w/m2
11/11/2011 0.04" 0.00" 0.00" 0.00" 47.5° 24.6° 36.2° 65.6% 1.1 MPH 87.8w/m2
11/12/2011 0.02" 0.00" 0.09" -0.07" 47.2° 28.9° 37.7° 78.6% 4.2 MPH 12.6w/m2
11/13/2011 0.04" 0.00" 0.26" -0.21" 49.1° 30.6° 39.0° 78.6% 2.5 MPH 71.9w/m2
11/14/2011 0.05" 0.00" 0.00" 0.00" 53.4° 36.2° 44.0° 45.0% 2.2 MPH 75.1w/m2
11/15/2011 0.04" 0.00" 0.00" 0.00" 47.0° 30.3° 40.1° 48.6% 2.1 MPH 61.9w/m2
11/16/2011 0.04" 0.00" 0.00" 0.00" 44.1° 24.7° 34.8° 52.9% 2.2 MPH 63.1w/m2
11/17/2011 0.06" 0.00" 0.00" 0.00" 50.0° 33.5° 43.6° 42.3% 3.2 MPH 57.9w/m2
11/18/2011 0.04" 0.00" 0.01" -0.01" 51.0° 31.5° 40.0° 68.7% 4.9 MPH 25.2w/m2
11/19/2011 0.02" 0.00" 0.26" -0.21" 38.5° 26.9° 31.9° 72.9% 1.6 MPH 62.1w/m2
11/20/2011 0.02" 0.00" 0.00" 0.00" 40.0° 25.3° 32.2° 81.6% 1.3 MPH 43.5w/m2
11/21/2011 0.02" 0.00" 0.07" -0.06" 43.9° 30.9° 36.5° 92.3% 1.4 MPH 41.3w/m2
11/22/2011 0.04" 0.00" 0.01" -0.01" 53.0° 31.0° 40.7° 72.9% 2.3 MPH 85.7w/m2
11/23/2011 0.06" 0.00" 0.00" 0.00" 57.2° 33.9° 45.9° 50.9% 3.4 MPH 87.8w/m2
11/24/2011 0.05" 0.00" 0.00" 0.00" 56.4° 38.6° 47.4° 48.1% 2.7 MPH 60.1w/m2
11/25/2011 0.05" 0.00" 0.00" 0.00" 49.9° 29.7° 40.4° 53.2% 4.7 MPH 74.4w/m2
11/26/2011 0.04" 0.00" 0.00" 0.00" 41.3° 21.8° 31.3° 52.6% 2.1 MPH 101.3w/m2
11/27/2011 0.04" 0.00" 0.00" 0.00" 46.4° 22.0° 33.1° 56.8% 1.7 MPH 98.3w/m2
11/28/2011 0.02" 0.00" 0.00" 0.00" 44.2° 26.1° 34.4° 73.1% 1.4 MPH 63.8w/m2
11/29/2011 0.04" 0.00" 0.00" 0.00" 50.2° 26.2° 35.5° 74.5% 1.5 MPH 93.1w/m2
11/30/2011 0.03" 0.00" 0.03" -0.02" 41.1° 29.2° 35.2° 76.7% 3.3 MPH 55.5w/m2
Totals: 1.20" 0.00" 1.07" -0.86" 62.0° 21.2° 37.7° 63.9% 2.7 MPH 75.6w/m2